sensor_id;sensor_type;location;lat;lon;timestamp;P1;durP1;ratioP1;P2;durP2;ratioP2
62582;SDS011;48641;51.676;5.808;2022-07-23T00:00:48;6.28;;;2.60;;
62582;SDS011;48641;51.676;5.808;2022-07-23T00:03:14;6.60;;;2.72;;
62582;SDS011;48641;51.676;5.808;2022-07-23T00:05:39;5.80;;;2.72;;
62582;SDS011;48641;51.676;5.808;2022-07-23T00:08:06;4.82;;;2.40;;
62582;SDS011;48641;51.676;5.808;2022-07-23T00:10:32;5.30;;;2.28;;
62582;SDS011;48641;51.676;5.808;2022-07-23T00:12:57;4.80;;;2.28;;
62582;SDS011;48641;51.676;5.808;2022-07-23T00:15:23;5.28;;;2.40;;
62582;SDS011;48641;51.676;5.808;2022-07-23T00:17:49;5.60;;;2.53;;
62582;SDS011;48641;51.676;5.808;2022-07-23T00:20:14;5.00;;;2.05;;
62582;SDS011;48641;51.676;5.808;2022-07-23T00:23:13;5.50;;;2.13;;
62582;SDS011;48641;51.676;5.808;2022-07-23T00:25:32;4.93;;;2.20;;
62582;SDS011;48641;51.676;5.808;2022-07-23T00:27:58;5.53;;;2.22;;
62582;SDS011;48641;51.676;5.808;2022-07-23T00:30:25;4.72;;;2.00;;
62582;SDS011;48641;51.676;5.808;2022-07-23T00:32:52;4.57;;;1.90;;
62582;SDS011;48641;51.676;5.808;2022-07-23T00:35:20;6.20;;;2.20;;
62582;SDS011;48641;51.676;5.808;2022-07-23T00:37:47;5.32;;;2.30;;
62582;SDS011;48641;51.676;5.808;2022-07-23T00:40:13;4.68;;;1.75;;
62582;SDS011;48641;51.676;5.808;2022-07-23T00:42:39;4.25;;;1.80;;
62582;SDS011;48641;51.676;5.808;2022-07-23T00:45:05;4.03;;;1.75;;
62582;SDS011;48641;51.676;5.808;2022-07-23T00:47:31;3.58;;;1.60;;
62582;SDS011;48641;51.676;5.808;2022-07-23T00:49:56;4.25;;;1.70;;
62582;SDS011;48641;51.676;5.808;2022-07-23T00:52:22;4.72;;;1.90;;
62582;SDS011;48641;51.676;5.808;2022-07-23T00:54:48;4.45;;;1.55;;
62582;SDS011;48641;51.676;5.808;2022-07-23T00:57:13;3.85;;;1.70;;
62582;SDS011;48641;51.676;5.808;2022-07-23T00:59:39;5.50;;;1.80;;
62582;SDS011;48641;51.676;5.808;2022-07-23T01:02:05;4.43;;;1.55;;
62582;SDS011;48641;51.676;5.808;2022-07-23T01:04:31;4.32;;;1.58;;
62582;SDS011;48641;51.676;5.808;2022-07-23T01:06:57;3.42;;;1.35;;
62582;SDS011;48641;51.676;5.808;2022-07-23T01:09:22;5.00;;;1.70;;
62582;SDS011;48641;51.676;5.808;2022-07-23T01:11:48;4.32;;;1.58;;
62582;SDS011;48641;51.676;5.808;2022-07-23T01:14:17;2.92;;;1.40;;
62582;SDS011;48641;51.676;5.808;2022-07-23T01:16:45;2.65;;;1.30;;
62582;SDS011;48641;51.676;5.808;2022-07-23T01:19:12;3.20;;;1.45;;
62582;SDS011;48641;51.676;5.808;2022-07-23T01:21:40;2.47;;;1.33;;
62582;SDS011;48641;51.676;5.808;2022-07-23T01:24:07;3.53;;;1.38;;
62582;SDS011;48641;51.676;5.808;2022-07-23T01:26:34;3.00;;;1.30;;
62582;SDS011;48641;51.676;5.808;2022-07-23T01:29:00;4.00;;;1.40;;
62582;SDS011;48641;51.676;5.808;2022-07-23T01:31:26;2.78;;;1.13;;
62582;SDS011;48641;51.676;5.808;2022-07-23T01:33:52;3.15;;;1.52;;
62582;SDS011;48641;51.676;5.808;2022-07-23T01:36:17;4.95;;;1.52;;
62582;SDS011;48641;51.676;5.808;2022-07-23T01:38:43;5.13;;;1.40;;
62582;SDS011;48641;51.676;5.808;2022-07-23T01:41:09;4.28;;;1.40;;
62582;SDS011;48641;51.676;5.808;2022-07-23T01:43:35;2.80;;;1.38;;
62582;SDS011;48641;51.676;5.808;2022-07-23T01:46:00;3.78;;;1.35;;
62582;SDS011;48641;51.676;5.808;2022-07-23T01:48:26;3.40;;;1.38;;
62582;SDS011;48641;51.676;5.808;2022-07-23T01:50:51;3.42;;;1.50;;
62582;SDS011;48641;51.676;5.808;2022-07-23T01:53:17;3.25;;;1.40;;
62582;SDS011;48641;51.676;5.808;2022-07-23T01:55:43;3.95;;;1.10;;
62582;SDS011;48641;51.676;5.808;2022-07-23T01:58:09;3.75;;;1.30;;
62582;SDS011;48641;51.676;5.808;2022-07-23T02:00:34;3.30;;;1.27;;
62582;SDS011;48641;51.676;5.808;2022-07-23T02:03:00;2.72;;;1.25;;
62582;SDS011;48641;51.676;5.808;2022-07-23T02:05:25;2.35;;;1.30;;
62582;SDS011;48641;51.676;5.808;2022-07-23T02:07:53;2.88;;;1.25;;
62582;SDS011;48641;51.676;5.808;2022-07-23T02:10:20;2.75;;;1.13;;
62582;SDS011;48641;51.676;5.808;2022-07-23T02:12:46;3.45;;;1.20;;
62582;SDS011;48641;51.676;5.808;2022-07-23T02:15:11;3.85;;;1.40;;
62582;SDS011;48641;51.676;5.808;2022-07-23T02:17:37;2.80;;;1.23;;
62582;SDS011;48641;51.676;5.808;2022-07-23T02:20:03;3.22;;;1.27;;
62582;SDS011;48641;51.676;5.808;2022-07-23T02:22:30;4.57;;;1.40;;
62582;SDS011;48641;51.676;5.808;2022-07-23T02:24:55;5.03;;;1.40;;
62582;SDS011;48641;51.676;5.808;2022-07-23T02:27:21;2.47;;;1.20;;
62582;SDS011;48641;51.676;5.808;2022-07-23T02:29:48;3.28;;;1.27;;
62582;SDS011;48641;51.676;5.808;2022-07-23T02:32:13;2.28;;;1.20;;
62582;SDS011;48641;51.676;5.808;2022-07-23T02:34:39;2.67;;;1.10;;
62582;SDS011;48641;51.676;5.808;2022-07-23T02:37:04;2.28;;;1.10;;
62582;SDS011;48641;51.676;5.808;2022-07-23T02:39:30;4.00;;;1.33;;
62582;SDS011;48641;51.676;5.808;2022-07-23T02:41:56;3.80;;;1.52;;
62582;SDS011;48641;51.676;5.808;2022-07-23T02:44:21;3.67;;;1.38;;
62582;SDS011;48641;51.676;5.808;2022-07-23T02:46:47;3.22;;;1.23;;
62582;SDS011;48641;51.676;5.808;2022-07-23T02:49:12;3.75;;;1.33;;
62582;SDS011;48641;51.676;5.808;2022-07-23T02:51:38;3.30;;;1.20;;
62582;SDS011;48641;51.676;5.808;2022-07-23T02:54:03;3.75;;;1.20;;
62582;SDS011;48641;51.676;5.808;2022-07-23T02:56:29;3.33;;;1.25;;
62582;SDS011;48641;51.676;5.808;2022-07-23T02:58:55;3.13;;;1.40;;
62582;SDS011;48641;51.676;5.808;2022-07-23T03:01:21;2.80;;;1.15;;
62582;SDS011;48641;51.676;5.808;2022-07-23T03:03:47;4.22;;;1.35;;
62582;SDS011;48641;51.676;5.808;2022-07-23T03:06:12;2.65;;;1.20;;
62582;SDS011;48641;51.676;5.808;2022-07-23T03:08:38;2.45;;;1.15;;
62582;SDS011;48641;51.676;5.808;2022-07-23T03:11:04;2.53;;;1.20;;
62582;SDS011;48641;51.676;5.808;2022-07-23T03:13:35;3.63;;;1.13;;
62582;SDS011;48641;51.676;5.808;2022-07-23T03:16:04;3.28;;;1.20;;
62582;SDS011;48641;51.676;5.808;2022-07-23T03:18:30;2.83;;;1.23;;
62582;SDS011;48641;51.676;5.808;2022-07-23T03:20:56;2.83;;;1.20;;
62582;SDS011;48641;51.676;5.808;2022-07-23T03:23:22;1.70;;;1.00;;
62582;SDS011;48641;51.676;5.808;2022-07-23T03:25:47;3.85;;;1.30;;
62582;SDS011;48641;51.676;5.808;2022-07-23T03:28:16;2.47;;;1.10;;
62582;SDS011;48641;51.676;5.808;2022-07-23T03:30:43;3.15;;;1.10;;
62582;SDS011;48641;51.676;5.808;2022-07-23T03:33:11;2.63;;;1.35;;
62582;SDS011;48641;51.676;5.808;2022-07-23T03:35:38;2.53;;;1.17;;
62582;SDS011;48641;51.676;5.808;2022-07-23T03:38:04;2.28;;;1.20;;
62582;SDS011;48641;51.676;5.808;2022-07-23T03:40:29;2.03;;;1.23;;
62582;SDS011;48641;51.676;5.808;2022-07-23T03:42:55;2.58;;;1.30;;
62582;SDS011;48641;51.676;5.808;2022-07-23T03:45:20;3.63;;;1.20;;
62582;SDS011;48641;51.676;5.808;2022-07-23T03:47:46;3.13;;;1.25;;
62582;SDS011;48641;51.676;5.808;2022-07-23T03:50:11;2.60;;;1.20;;
62582;SDS011;48641;51.676;5.808;2022-07-23T03:52:37;3.17;;;1.20;;
62582;SDS011;48641;51.676;5.808;2022-07-23T03:55:03;3.55;;;1.20;;
62582;SDS011;48641;51.676;5.808;2022-07-23T03:57:30;2.28;;;1.20;;
62582;SDS011;48641;51.676;5.808;2022-07-23T03:59:55;2.40;;;1.17;;
62582;SDS011;48641;51.676;5.808;2022-07-23T04:02:21;4.22;;;1.45;;
62582;SDS011;48641;51.676;5.808;2022-07-23T04:04:47;3.55;;;1.20;;
62582;SDS011;48641;51.676;5.808;2022-07-23T04:07:13;2.30;;;1.08;;
62582;SDS011;48641;51.676;5.808;2022-07-23T04:09:39;3.13;;;1.25;;
62582;SDS011;48641;51.676;5.808;2022-07-23T04:12:07;1.98;;;1.30;;
62582;SDS011;48641;51.676;5.808;2022-07-23T04:14:33;3.10;;;1.15;;
62582;SDS011;48641;51.676;5.808;2022-07-23T04:16:58;4.75;;;1.40;;
62582;SDS011;48641;51.676;5.808;2022-07-23T04:19:24;3.25;;;1.30;;
62582;SDS011;48641;51.676;5.808;2022-07-23T04:21:50;2.80;;;1.20;;
62582;SDS011;48641;51.676;5.808;2022-07-23T04:24:16;3.10;;;1.23;;
62582;SDS011;48641;51.676;5.808;2022-07-23T04:26:42;3.08;;;1.20;;
62582;SDS011;48641;51.676;5.808;2022-07-23T04:29:08;3.38;;;1.20;;
62582;SDS011;48641;51.676;5.808;2022-07-23T04:31:34;4.78;;;1.20;;
62582;SDS011;48641;51.676;5.808;2022-07-23T04:33:59;2.97;;;1.10;;
62582;SDS011;48641;51.676;5.808;2022-07-23T04:36:25;4.00;;;1.30;;
62582;SDS011;48641;51.676;5.808;2022-07-23T04:38:50;4.22;;;1.75;;
62582;SDS011;48641;51.676;5.808;2022-07-23T04:41:16;3.83;;;1.50;;
62582;SDS011;48641;51.676;5.808;2022-07-23T04:43:41;4.38;;;1.58;;
62582;SDS011;48641;51.676;5.808;2022-07-23T04:46:07;3.35;;;1.50;;
62582;SDS011;48641;51.676;5.808;2022-07-23T04:48:33;3.17;;;1.40;;
62582;SDS011;48641;51.676;5.808;2022-07-23T04:50:58;3.38;;;1.50;;
62582;SDS011;48641;51.676;5.808;2022-07-23T04:53:24;2.90;;;1.30;;
62582;SDS011;48641;51.676;5.808;2022-07-23T04:55:49;4.13;;;1.40;;
62582;SDS011;48641;51.676;5.808;2022-07-23T04:58:15;5.30;;;1.50;;
62582;SDS011;48641;51.676;5.808;2022-07-23T05:00:40;4.95;;;1.63;;
62582;SDS011;48641;51.676;5.808;2022-07-23T05:03:06;2.88;;;1.27;;
62582;SDS011;48641;51.676;5.808;2022-07-23T05:05:31;4.07;;;1.50;;
62582;SDS011;48641;51.676;5.808;2022-07-23T05:07:57;3.83;;;1.40;;
62582;SDS011;48641;51.676;5.808;2022-07-23T05:10:23;2.90;;;1.48;;
62582;SDS011;48641;51.676;5.808;2022-07-23T05:12:48;3.35;;;1.40;;
62582;SDS011;48641;51.676;5.808;2022-07-23T05:15:14;3.08;;;1.42;;
62582;SDS011;48641;51.676;5.808;2022-07-23T05:17:39;4.97;;;1.70;;
62582;SDS011;48641;51.676;5.808;2022-07-23T05:20:05;3.28;;;1.50;;
62582;SDS011;48641;51.676;5.808;2022-07-23T05:22:31;4.40;;;1.65;;
62582;SDS011;48641;51.676;5.808;2022-07-23T05:24:58;4.18;;;1.77;;
62582;SDS011;48641;51.676;5.808;2022-07-23T05:27:23;4.45;;;1.80;;
62582;SDS011;48641;51.676;5.808;2022-07-23T05:29:49;3.17;;;1.58;;
62582;SDS011;48641;51.676;5.808;2022-07-23T05:32:14;3.15;;;1.45;;
62582;SDS011;48641;51.676;5.808;2022-07-23T05:34:40;3.78;;;1.40;;
62582;SDS011;48641;51.676;5.808;2022-07-23T05:37:05;5.88;;;2.10;;
62582;SDS011;48641;51.676;5.808;2022-07-23T05:39:31;3.97;;;1.52;;
62582;SDS011;48641;51.676;5.808;2022-07-23T05:41:57;5.03;;;1.95;;
62582;SDS011;48641;51.676;5.808;2022-07-23T05:44:22;3.72;;;1.70;;
62582;SDS011;48641;51.676;5.808;2022-07-23T05:46:48;3.95;;;1.50;;
62582;SDS011;48641;51.676;5.808;2022-07-23T05:49:14;3.55;;;1.70;;
62582;SDS011;48641;51.676;5.808;2022-07-23T05:51:39;4.70;;;1.60;;
62582;SDS011;48641;51.676;5.808;2022-07-23T05:54:05;3.30;;;1.55;;
62582;SDS011;48641;51.676;5.808;2022-07-23T05:56:30;4.30;;;1.80;;
62582;SDS011;48641;51.676;5.808;2022-07-23T05:58:56;3.65;;;1.77;;
62582;SDS011;48641;51.676;5.808;2022-07-23T06:01:22;3.95;;;1.70;;
62582;SDS011;48641;51.676;5.808;2022-07-23T06:03:47;4.55;;;1.80;;
62582;SDS011;48641;51.676;5.808;2022-07-23T06:06:13;5.10;;;1.77;;
62582;SDS011;48641;51.676;5.808;2022-07-23T06:08:39;3.58;;;1.67;;
62582;SDS011;48641;51.676;5.808;2022-07-23T06:11:04;4.25;;;1.67;;
62582;SDS011;48641;51.676;5.808;2022-07-23T06:13:30;5.00;;;2.03;;
62582;SDS011;48641;51.676;5.808;2022-07-23T06:15:55;3.63;;;1.60;;
62582;SDS011;48641;51.676;5.808;2022-07-23T06:18:21;4.38;;;1.70;;
62582;SDS011;48641;51.676;5.808;2022-07-23T06:20:46;3.35;;;1.60;;
62582;SDS011;48641;51.676;5.808;2022-07-23T06:23:12;4.32;;;1.73;;
62582;SDS011;48641;51.676;5.808;2022-07-23T06:25:38;5.03;;;1.95;;
62582;SDS011;48641;51.676;5.808;2022-07-23T06:28:03;4.82;;;1.70;;
62582;SDS011;48641;51.676;5.808;2022-07-23T06:30:29;4.30;;;2.00;;
62582;SDS011;48641;51.676;5.808;2022-07-23T06:32:55;4.20;;;1.80;;
62582;SDS011;48641;51.676;5.808;2022-07-23T06:35:20;4.47;;;1.70;;
62582;SDS011;48641;51.676;5.808;2022-07-23T06:37:46;4.47;;;1.80;;
62582;SDS011;48641;51.676;5.808;2022-07-23T06:40:12;3.88;;;1.80;;
62582;SDS011;48641;51.676;5.808;2022-07-23T06:42:37;3.85;;;1.65;;
62582;SDS011;48641;51.676;5.808;2022-07-23T06:45:04;4.47;;;1.50;;
62582;SDS011;48641;51.676;5.808;2022-07-23T06:47:31;4.13;;;1.70;;
62582;SDS011;48641;51.676;5.808;2022-07-23T06:49:57;3.65;;;1.50;;
62582;SDS011;48641;51.676;5.808;2022-07-23T06:52:23;5.25;;;1.90;;
62582;SDS011;48641;51.676;5.808;2022-07-23T06:54:49;6.10;;;1.75;;
62582;SDS011;48641;51.676;5.808;2022-07-23T06:57:14;3.70;;;1.48;;
62582;SDS011;48641;51.676;5.808;2022-07-23T06:59:40;6.32;;;1.80;;
62582;SDS011;48641;51.676;5.808;2022-07-23T07:02:06;5.60;;;1.80;;
62582;SDS011;48641;51.676;5.808;2022-07-23T07:04:32;6.97;;;1.98;;
62582;SDS011;48641;51.676;5.808;2022-07-23T07:06:58;5.20;;;1.88;;
62582;SDS011;48641;51.676;5.808;2022-07-23T07:09:23;6.78;;;1.90;;
62582;SDS011;48641;51.676;5.808;2022-07-23T07:11:49;5.57;;;1.77;;
62582;SDS011;48641;51.676;5.808;2022-07-23T07:14:15;4.82;;;1.90;;
62582;SDS011;48641;51.676;5.808;2022-07-23T07:16:40;6.07;;;2.03;;
62582;SDS011;48641;51.676;5.808;2022-07-23T07:19:06;5.80;;;2.00;;
62582;SDS011;48641;51.676;5.808;2022-07-23T07:21:31;5.70;;;1.88;;
62582;SDS011;48641;51.676;5.808;2022-07-23T07:23:57;4.00;;;1.65;;
62582;SDS011;48641;51.676;5.808;2022-07-23T07:26:22;5.05;;;1.95;;
62582;SDS011;48641;51.676;5.808;2022-07-23T07:28:48;3.38;;;1.60;;
62582;SDS011;48641;51.676;5.808;2022-07-23T07:31:14;5.00;;;1.65;;
62582;SDS011;48641;51.676;5.808;2022-07-23T07:33:39;3.28;;;1.58;;
62582;SDS011;48641;51.676;5.808;2022-07-23T07:36:05;2.55;;;1.30;;
62582;SDS011;48641;51.676;5.808;2022-07-23T07:38:31;3.97;;;1.50;;
62582;SDS011;48641;51.676;5.808;2022-07-23T07:40:56;4.38;;;1.85;;
62582;SDS011;48641;51.676;5.808;2022-07-23T07:43:22;5.00;;;1.40;;
62582;SDS011;48641;51.676;5.808;2022-07-23T07:45:47;4.55;;;1.48;;
62582;SDS011;48641;51.676;5.808;2022-07-23T07:48:13;4.85;;;1.50;;
62582;SDS011;48641;51.676;5.808;2022-07-23T07:50:38;3.90;;;1.50;;
62582;SDS011;48641;51.676;5.808;2022-07-23T07:53:04;4.28;;;1.52;;
62582;SDS011;48641;51.676;5.808;2022-07-23T07:55:29;4.70;;;1.50;;
62582;SDS011;48641;51.676;5.808;2022-07-23T07:57:55;3.33;;;1.27;;
62582;SDS011;48641;51.676;5.808;2022-07-23T08:00:21;4.80;;;1.52;;
62582;SDS011;48641;51.676;5.808;2022-07-23T08:02:48;3.72;;;1.40;;
62582;SDS011;48641;51.676;5.808;2022-07-23T08:05:18;4.07;;;1.35;;
62582;SDS011;48641;51.676;5.808;2022-07-23T08:07:48;3.47;;;1.30;;
62582;SDS011;48641;51.676;5.808;2022-07-23T08:10:15;3.72;;;1.17;;
62582;SDS011;48641;51.676;5.808;2022-07-23T08:12:45;2.60;;;1.27;;
62582;SDS011;48641;51.676;5.808;2022-07-23T08:15:13;3.22;;;1.33;;
62582;SDS011;48641;51.676;5.808;2022-07-23T08:17:40;3.65;;;1.27;;
62582;SDS011;48641;51.676;5.808;2022-07-23T08:20:06;3.33;;;1.23;;
62582;SDS011;48641;51.676;5.808;2022-07-23T08:22:42;2.17;;;1.20;;
62582;SDS011;48641;51.676;5.808;2022-07-23T08:25:09;3.40;;;1.38;;
62582;SDS011;48641;51.676;5.808;2022-07-23T08:27:35;3.30;;;1.17;;
62582;SDS011;48641;51.676;5.808;2022-07-23T08:30:00;4.50;;;1.55;;
62582;SDS011;48641;51.676;5.808;2022-07-23T08:32:26;5.65;;;1.50;;
62582;SDS011;48641;51.676;5.808;2022-07-23T08:34:52;4.18;;;1.33;;
62582;SDS011;48641;51.676;5.808;2022-07-23T08:37:17;4.10;;;1.40;;
62582;SDS011;48641;51.676;5.808;2022-07-23T08:39:43;4.25;;;1.52;;
62582;SDS011;48641;51.676;5.808;2022-07-23T08:42:08;3.80;;;1.40;;
62582;SDS011;48641;51.676;5.808;2022-07-23T08:44:34;4.25;;;1.50;;
62582;SDS011;48641;51.676;5.808;2022-07-23T08:47:01;4.40;;;2.05;;
62582;SDS011;48641;51.676;5.808;2022-07-23T08:49:27;3.88;;;1.88;;
62582;SDS011;48641;51.676;5.808;2022-07-23T08:51:54;3.78;;;1.42;;
62582;SDS011;48641;51.676;5.808;2022-07-23T08:54:20;4.18;;;1.38;;
62582;SDS011;48641;51.676;5.808;2022-07-23T08:56:47;4.15;;;1.60;;
62582;SDS011;48641;51.676;5.808;2022-07-23T08:59:13;4.53;;;1.42;;
62582;SDS011;48641;51.676;5.808;2022-07-23T09:01:39;4.20;;;1.73;;
62582;SDS011;48641;51.676;5.808;2022-07-23T09:04:04;4.60;;;1.45;;
62582;SDS011;48641;51.676;5.808;2022-07-23T09:06:30;4.97;;;1.70;;
62582;SDS011;48641;51.676;5.808;2022-07-23T09:08:55;4.07;;;1.63;;
62582;SDS011;48641;51.676;5.808;2022-07-23T09:11:21;6.93;;;1.95;;
62582;SDS011;48641;51.676;5.808;2022-07-23T09:13:48;8.52;;;1.92;;
62582;SDS011;48641;51.676;5.808;2022-07-23T09:18:42;5.63;;;1.60;;
62582;SDS011;48641;51.676;5.808;2022-07-23T09:23:44;4.38;;;1.70;;
62582;SDS011;48641;51.676;5.808;2022-07-23T09:26:29;2.78;;;1.42;;
62582;SDS011;48641;51.676;5.808;2022-07-23T09:29:04;4.85;;;1.55;;
62582;SDS011;48641;51.676;5.808;2022-07-23T09:31:32;4.38;;;1.35;;
62582;SDS011;48641;51.676;5.808;2022-07-23T09:34:19;3.47;;;1.40;;
62582;SDS011;48641;51.676;5.808;2022-07-23T09:36:50;3.60;;;1.42;;
62582;SDS011;48641;51.676;5.808;2022-07-23T09:39:22;5.43;;;1.60;;
62582;SDS011;48641;51.676;5.808;2022-07-23T09:41:54;4.38;;;1.67;;
62582;SDS011;48641;51.676;5.808;2022-07-23T09:44:20;4.35;;;1.70;;
62582;SDS011;48641;51.676;5.808;2022-07-23T09:46:47;3.97;;;1.38;;
62582;SDS011;48641;51.676;5.808;2022-07-23T09:51:45;4.78;;;1.50;;
62582;SDS011;48641;51.676;5.808;2022-07-23T09:54:21;4.03;;;1.67;;
62582;SDS011;48641;51.676;5.808;2022-07-23T09:56:49;4.97;;;1.63;;
62582;SDS011;48641;51.676;5.808;2022-07-23T09:59:16;3.85;;;1.63;;
62582;SDS011;48641;51.676;5.808;2022-07-23T10:01:44;3.58;;;1.63;;
62582;SDS011;48641;51.676;5.808;2022-07-23T10:04:13;4.47;;;1.80;;
62582;SDS011;48641;51.676;5.808;2022-07-23T10:06:39;5.03;;;1.98;;
62582;SDS011;48641;51.676;5.808;2022-07-23T10:09:08;4.43;;;1.80;;
62582;SDS011;48641;51.676;5.808;2022-07-23T10:11:37;5.18;;;1.98;;
62582;SDS011;48641;51.676;5.808;2022-07-23T10:14:03;6.90;;;1.77;;
62582;SDS011;48641;51.676;5.808;2022-07-23T10:16:30;4.85;;;1.73;;
62582;SDS011;48641;51.676;5.808;2022-07-23T10:18:56;4.50;;;1.70;;
62582;SDS011;48641;51.676;5.808;2022-07-23T10:21:42;4.88;;;2.03;;
62582;SDS011;48641;51.676;5.808;2022-07-23T10:24:16;8.82;;;2.08;;
62582;SDS011;48641;51.676;5.808;2022-07-23T10:26:54;3.42;;;1.60;;
62582;SDS011;48641;51.676;5.808;2022-07-23T10:29:45;4.45;;;1.58;;
62582;SDS011;48641;51.676;5.808;2022-07-23T10:37:42;4.88;;;1.60;;
62582;SDS011;48641;51.676;5.808;2022-07-23T10:42:42;4.82;;;1.85;;
62582;SDS011;48641;51.676;5.808;2022-07-23T10:45:31;6.75;;;2.00;;
62582;SDS011;48641;51.676;5.808;2022-07-23T10:50:39;7.20;;;1.60;;
62582;SDS011;48641;51.676;5.808;2022-07-23T10:57:56;3.35;;;1.60;;
62582;SDS011;48641;51.676;5.808;2022-07-23T11:00:23;4.75;;;1.98;;
62582;SDS011;48641;51.676;5.808;2022-07-23T11:02:54;4.38;;;1.88;;
62582;SDS011;48641;51.676;5.808;2022-07-23T11:05:25;4.22;;;1.58;;
62582;SDS011;48641;51.676;5.808;2022-07-23T11:10:36;5.00;;;1.90;;
62582;SDS011;48641;51.676;5.808;2022-07-23T11:32:00;3.95;;;1.50;;
62582;SDS011;48641;51.676;5.808;2022-07-23T11:34:38;3.47;;;1.60;;
62582;SDS011;48641;51.676;5.808;2022-07-23T11:37:11;4.95;;;1.55;;
62582;SDS011;48641;51.676;5.808;2022-07-23T11:39:53;5.10;;;1.75;;
62582;SDS011;48641;51.676;5.808;2022-07-23T11:42:20;2.90;;;1.40;;
62582;SDS011;48641;51.676;5.808;2022-07-23T11:44:46;3.72;;;1.55;;
62582;SDS011;48641;51.676;5.808;2022-07-23T11:47:12;3.67;;;1.70;;
62582;SDS011;48641;51.676;5.808;2022-07-23T11:49:38;3.15;;;1.60;;
62582;SDS011;48641;51.676;5.808;2022-07-23T11:52:13;4.20;;;1.70;;
62582;SDS011;48641;51.676;5.808;2022-07-23T11:54:49;2.22;;;1.30;;
62582;SDS011;48641;51.676;5.808;2022-07-23T11:57:20;3.42;;;1.35;;
62582;SDS011;48641;51.676;5.808;2022-07-23T11:59:50;4.45;;;1.75;;
62582;SDS011;48641;51.676;5.808;2022-07-23T12:04:45;3.08;;;1.40;;
62582;SDS011;48641;51.676;5.808;2022-07-23T12:09:49;3.42;;;1.55;;
62582;SDS011;48641;51.676;5.808;2022-07-23T12:12:15;4.03;;;1.58;;
62582;SDS011;48641;51.676;5.808;2022-07-23T12:14:48;3.63;;;1.67;;
62582;SDS011;48641;51.676;5.808;2022-07-23T12:17:18;6.07;;;1.80;;
62582;SDS011;48641;51.676;5.808;2022-07-23T12:19:44;4.68;;;1.90;;
62582;SDS011;48641;51.676;5.808;2022-07-23T12:22:11;5.85;;;1.80;;
62582;SDS011;48641;51.676;5.808;2022-07-23T12:27:24;5.50;;;1.77;;
62582;SDS011;48641;51.676;5.808;2022-07-23T12:29:50;4.93;;;1.90;;
62582;SDS011;48641;51.676;5.808;2022-07-23T12:32:23;5.03;;;1.90;;
62582;SDS011;48641;51.676;5.808;2022-07-23T12:35:00;4.00;;;1.63;;
62582;SDS011;48641;51.676;5.808;2022-07-23T12:37:37;5.18;;;2.05;;
62582;SDS011;48641;51.676;5.808;2022-07-23T12:40:27;4.63;;;1.80;;
62582;SDS011;48641;51.676;5.808;2022-07-23T12:42:56;4.10;;;1.60;;
62582;SDS011;48641;51.676;5.808;2022-07-23T12:45:24;3.75;;;1.85;;
62582;SDS011;48641;51.676;5.808;2022-07-23T12:48:04;4.65;;;2.10;;
62582;SDS011;48641;51.676;5.808;2022-07-23T12:50:32;4.70;;;1.80;;
62582;SDS011;48641;51.676;5.808;2022-07-23T12:53:17;3.90;;;1.70;;
62582;SDS011;48641;51.676;5.808;2022-07-23T12:55:44;3.50;;;1.70;;
62582;SDS011;48641;51.676;5.808;2022-07-23T12:58:12;5.25;;;1.70;;
62582;SDS011;48641;51.676;5.808;2022-07-23T13:03:32;5.32;;;1.90;;
62582;SDS011;48641;51.676;5.808;2022-07-23T13:06:00;4.55;;;1.80;;
62582;SDS011;48641;51.676;5.808;2022-07-23T13:08:28;5.55;;;1.77;;
62582;SDS011;48641;51.676;5.808;2022-07-23T13:10:55;7.40;;;2.00;;
62582;SDS011;48641;51.676;5.808;2022-07-23T13:13:21;3.95;;;1.88;;
62582;SDS011;48641;51.676;5.808;2022-07-23T13:15:49;6.75;;;2.10;;
62582;SDS011;48641;51.676;5.808;2022-07-23T13:18:15;4.32;;;2.10;;
62582;SDS011;48641;51.676;5.808;2022-07-23T13:20:42;4.40;;;2.00;;
62582;SDS011;48641;51.676;5.808;2022-07-23T13:23:08;5.65;;;1.90;;
62582;SDS011;48641;51.676;5.808;2022-07-23T13:25:34;4.45;;;2.00;;
62582;SDS011;48641;51.676;5.808;2022-07-23T13:28:00;4.50;;;1.90;;
62582;SDS011;48641;51.676;5.808;2022-07-23T13:30:25;5.68;;;1.88;;
62582;SDS011;48641;51.676;5.808;2022-07-23T13:32:51;5.53;;;2.15;;
62582;SDS011;48641;51.676;5.808;2022-07-23T13:35:17;3.80;;;1.83;;
62582;SDS011;48641;51.676;5.808;2022-07-23T13:37:42;4.45;;;1.75;;
62582;SDS011;48641;51.676;5.808;2022-07-23T13:40:08;4.65;;;2.25;;
62582;SDS011;48641;51.676;5.808;2022-07-23T13:42:34;4.35;;;1.90;;
62582;SDS011;48641;51.676;5.808;2022-07-23T13:45:00;4.60;;;2.00;;
62582;SDS011;48641;51.676;5.808;2022-07-23T13:47:26;5.18;;;1.85;;
62582;SDS011;48641;51.676;5.808;2022-07-23T13:49:51;5.85;;;1.85;;
62582;SDS011;48641;51.676;5.808;2022-07-23T13:52:17;4.90;;;2.05;;
62582;SDS011;48641;51.676;5.808;2022-07-23T13:54:43;4.72;;;2.15;;
62582;SDS011;48641;51.676;5.808;2022-07-23T13:57:08;5.95;;;1.80;;
62582;SDS011;48641;51.676;5.808;2022-07-23T13:59:34;4.32;;;2.00;;
62582;SDS011;48641;51.676;5.808;2022-07-23T14:02:01;4.60;;;2.00;;
62582;SDS011;48641;51.676;5.808;2022-07-23T14:04:27;4.13;;;2.20;;
62582;SDS011;48641;51.676;5.808;2022-07-23T14:06:53;5.32;;;2.05;;
62582;SDS011;48641;51.676;5.808;2022-07-23T14:09:18;4.53;;;1.85;;
62582;SDS011;48641;51.676;5.808;2022-07-23T14:11:44;5.25;;;2.10;;
62582;SDS011;48641;51.676;5.808;2022-07-23T14:14:10;5.22;;;2.10;;
62582;SDS011;48641;51.676;5.808;2022-07-23T14:16:35;4.78;;;2.20;;
62582;SDS011;48641;51.676;5.808;2022-07-23T14:19:01;4.32;;;2.08;;
62582;SDS011;48641;51.676;5.808;2022-07-23T14:21:27;3.78;;;1.90;;
62582;SDS011;48641;51.676;5.808;2022-07-23T14:23:52;5.13;;;2.10;;
62582;SDS011;48641;51.676;5.808;2022-07-23T14:26:18;4.72;;;2.30;;
62582;SDS011;48641;51.676;5.808;2022-07-23T14:28:44;5.45;;;2.30;;
62582;SDS011;48641;51.676;5.808;2022-07-23T14:31:10;6.00;;;2.10;;
62582;SDS011;48641;51.676;5.808;2022-07-23T14:33:35;4.53;;;2.00;;
62582;SDS011;48641;51.676;5.808;2022-07-23T14:36:01;6.47;;;2.10;;
62582;SDS011;48641;51.676;5.808;2022-07-23T14:38:27;4.22;;;2.15;;
62582;SDS011;48641;51.676;5.808;2022-07-23T14:40:52;3.72;;;1.92;;
62582;SDS011;48641;51.676;5.808;2022-07-23T14:43:18;4.93;;;2.13;;
62582;SDS011;48641;51.676;5.808;2022-07-23T14:45:44;4.35;;;2.13;;
62582;SDS011;48641;51.676;5.808;2022-07-23T14:48:10;4.38;;;2.25;;
62582;SDS011;48641;51.676;5.808;2022-07-23T14:50:36;4.68;;;2.25;;
62582;SDS011;48641;51.676;5.808;2022-07-23T14:53:01;5.03;;;2.08;;
62582;SDS011;48641;51.676;5.808;2022-07-23T14:55:27;4.55;;;2.10;;
62582;SDS011;48641;51.676;5.808;2022-07-23T14:57:52;5.47;;;2.22;;
62582;SDS011;48641;51.676;5.808;2022-07-23T15:00:18;6.05;;;2.42;;
62582;SDS011;48641;51.676;5.808;2022-07-23T15:02:44;4.72;;;2.33;;
62582;SDS011;48641;51.676;5.808;2022-07-23T15:05:09;5.38;;;2.08;;
62582;SDS011;48641;51.676;5.808;2022-07-23T15:07:35;5.72;;;2.50;;
62582;SDS011;48641;51.676;5.808;2022-07-23T15:10:01;5.22;;;2.40;;
62582;SDS011;48641;51.676;5.808;2022-07-23T15:12:27;5.13;;;2.30;;
62582;SDS011;48641;51.676;5.808;2022-07-23T15:14:53;5.28;;;2.40;;
62582;SDS011;48641;51.676;5.808;2022-07-23T15:17:18;4.80;;;2.20;;
62582;SDS011;48641;51.676;5.808;2022-07-23T15:19:44;4.80;;;2.15;;
62582;SDS011;48641;51.676;5.808;2022-07-23T15:22:09;5.82;;;2.25;;
62582;SDS011;48641;51.676;5.808;2022-07-23T15:24:35;4.35;;;2.13;;
62582;SDS011;48641;51.676;5.808;2022-07-23T15:27:00;5.38;;;2.20;;
62582;SDS011;48641;51.676;5.808;2022-07-23T15:29:26;4.28;;;2.08;;
62582;SDS011;48641;51.676;5.808;2022-07-23T15:31:52;4.47;;;2.40;;
62582;SDS011;48641;51.676;5.808;2022-07-23T15:34:17;4.63;;;2.17;;
62582;SDS011;48641;51.676;5.808;2022-07-23T15:36:43;5.15;;;2.42;;
62582;SDS011;48641;51.676;5.808;2022-07-23T15:39:08;5.32;;;2.50;;
62582;SDS011;48641;51.676;5.808;2022-07-23T15:41:34;6.10;;;2.40;;